Time;durP1;ratioP1;P1;durP2;ratioP2;P2;SDS_P1;SDS_P2;PMS_P1;PMS_P2;Temp;Humidity;BMP_temperature;BMP_pressure;BME280_temperature;BME280_humidity;BME280_pressure;Samples;Min_cycle;Max_cycle;Signal;HPM_P1;HPM_P2
2022/05/04 00:00:19;;;;;;;14.98;4.10;;;;;;;8.79;93.79;102074.31;5072821;28;20492;-72
2022/05/04 00:02:45;;;;;;;16.75;4.32;;;;;;;8.74;93.94;102079.34;5073668;28;20025;-73
2022/05/04 00:05:11;;;;;;;10.25;4.10;;;;;;;8.83;95.09;102075.31;5075565;28;20079;-74
2022/05/04 00:07:37;;;;;;;8.25;3.92;;;;;;;8.83;93.34;102075.31;5072639;28;20077;-73
2022/05/04 00:10:04;;;;;;;15.82;4.10;;;;;;;8.78;92.72;102073.41;5075378;28;20029;-73
2022/05/04 00:12:29;;;;;;;10.38;4.13;;;;;;;8.80;92.45;102080.44;5074416;28;20024;-73
2022/05/04 00:14:55;;;;;;;14.90;3.90;;;;;;;8.88;92.86;102073.81;5073574;28;20078;-73
2022/05/04 00:17:20;;;;;;;19.58;5.88;;;;;;;8.76;92.63;102075.06;5073917;28;20024;-73
2022/05/04 00:19:45;;;;;;;12.15;3.97;;;;;;;8.83;92.75;102077.94;5074420;28;20462;-73
2022/05/04 00:22:16;;;;;;;11.15;3.97;;;;;;;8.80;94.20;102077.81;5074439;28;20066;-73
2022/05/04 00:24:42;;;;;;;12.38;4.60;;;;;;;8.78;93.88;102076.03;5073322;28;20094;-73
2022/05/04 00:27:07;;;;;;;8.43;4.07;;;;;;;8.82;94.52;102070.91;5073940;28;20024;-74
2022/05/04 00:29:33;;;;;;;10.52;4.40;;;;;;;8.82;94.97;102076.16;5075034;28;20056;-73
2022/05/04 00:31:58;;;;;;;12.95;4.32;;;;;;;8.65;92.50;102075.44;5073097;28;20124;-73
2022/05/04 00:34:23;;;;;;;9.60;4.22;;;;;;;8.69;92.06;102074.72;5073152;28;20059;-73
2022/05/04 00:36:49;;;;;;;17.58;5.20;;;;;;;8.73;93.14;102067.03;5074676;28;20028;-74
2022/05/04 00:39:14;;;;;;;8.98;3.65;;;;;;;8.75;93.57;102073.28;5074029;28;20032;-73
2022/05/04 00:41:39;;;;;;;8.57;4.13;;;;;;;8.74;94.46;102071.47;5074949;28;20520;-72
2022/05/04 00:44:05;;;;;;;10.40;3.78;;;;;;;8.69;93.52;102067.75;5072751;28;20119;-72
2022/05/04 00:46:30;;;;;;;12.77;4.25;;;;;;;8.73;94.12;102074.91;5072274;28;20041;-73
2022/05/04 00:48:55;;;;;;;10.10;4.25;;;;;;;8.86;94.96;102078.09;5074355;28;20029;-72
2022/05/04 00:51:21;;;;;;;10.60;4.05;;;;;;;8.83;94.98;102072.69;5073819;28;20037;-72
2022/05/04 00:53:47;;;;;;;11.73;4.55;;;;;;;9.02;94.52;102072.69;5072307;28;20020;-73
2022/05/04 00:56:12;;;;;;;12.00;4.60;;;;;;;8.88;93.67;102068.56;5072002;28;20024;-73
2022/05/04 00:58:57;;;;;;;10.68;4.55;;;;;;;8.91;93.57;102069.59;5069504;28;20069;-73
2022/05/04 01:01:28;;;;;;;10.75;4.40;;;;;;;8.82;94.42;102063.03;5071413;28;20025;-73
2022/05/04 01:03:55;;;;;;;12.15;5.65;;;;;;;8.92;94.08;102065.22;5074266;28;20062;-72
2022/05/04 01:06:20;;;;;;;18.88;4.45;;;;;;;8.81;94.69;102059.53;5072196;28;20028;-72
2022/05/04 01:08:48;;;;;;;11.85;5.93;;;;;;;8.87;95.40;102067.66;5072796;28;20099;-73
2022/05/04 01:11:14;;;;;;;11.27;4.50;;;;;;;8.81;94.35;102067.38;5073263;28;20033;-72
2022/05/04 01:13:39;;;;;;;12.70;4.78;;;;;;;8.76;95.06;102061.03;5074165;28;20024;-72
2022/05/04 01:16:04;;;;;;;13.88;4.82;;;;;;;8.78;95.00;102067.25;5073355;28;20056;-74
2022/05/04 01:18:30;;;;;;;12.40;4.35;;;;;;;8.72;95.01;102067.91;5071397;28;20121;-73
2022/05/04 01:20:55;;;;;;;17.63;5.13;;;;;;;8.68;96.74;102060.72;5073801;28;20519;-72
2022/05/04 01:23:21;;;;;;;18.80;6.25;;;;;;;8.71;96.43;102060.84;5073898;28;20041;-73
2022/05/04 01:25:47;;;;;;;10.15;4.40;;;;;;;8.62;95.75;102059.56;5073997;28;20032;-73
2022/05/04 01:28:12;;;;;;;11.10;4.15;;;;;;;8.62;96.93;102055.19;5073861;28;20459;-73
2022/05/04 01:30:37;;;;;;;11.90;4.53;;;;;;;8.50;96.60;102054.66;5071857;28;20472;-72
2022/05/04 01:33:03;;;;;;;9.13;4.35;;;;;;;8.55;95.01;102047.88;5072902;28;20487;-73
2022/05/04 01:35:29;;;;;;;10.07;4.40;;;;;;;8.46;95.36;102048.38;5072083;28;20035;-72
2022/05/04 01:37:54;;;;;;;10.50;4.97;;;;;;;8.41;95.11;102053.38;5073631;28;20449;-74
2022/05/04 01:40:19;;;;;;;8.52;4.70;;;;;;;8.42;95.93;102046.41;5072133;28;20427;-74
2022/05/04 01:42:45;;;;;;;12.65;5.55;;;;;;;8.25;96.32;102045.66;5073567;28;20020;-73
2022/05/04 01:45:11;;;;;;;12.70;4.75;;;;;;;8.21;97.27;102047.22;5073640;28;20028;-73
2022/05/04 01:47:36;;;;;;;11.68;4.72;;;;;;;8.10;96.54;102049.34;5073049;28;20031;-73
2022/05/04 01:50:03;;;;;;;13.52;4.95;;;;;;;8.06;98.05;102051.78;5071369;28;20384;-73
2022/05/04 01:52:29;;;;;;;8.88;4.65;;;;;;;8.07;97.45;102041.34;5073050;28;20032;-73
2022/05/04 01:54:55;;;;;;;14.43;4.78;;;;;;;7.96;97.77;102044.31;5071286;28;20043;-72
2022/05/04 01:57:20;;;;;;;9.25;4.47;;;;;;;7.84;97.32;102042.00;5072987;28;20476;-73
2022/05/04 01:59:45;;;;;;;11.07;4.80;;;;;;;7.88;98.48;102039.59;5073207;28;20032;-74
2022/05/04 02:02:11;;;;;;;11.38;5.10;;;;;;;7.73;98.76;102037.16;5072635;28;20035;-73
2022/05/04 02:04:37;;;;;;;11.85;4.95;;;;;;;7.64;97.68;102041.03;5070639;28;20126;-73
2022/05/04 02:07:03;;;;;;;10.95;4.70;;;;;;;7.50;98.19;102038.69;5071471;28;20028;-72
2022/05/04 02:09:29;;;;;;;12.20;4.68;;;;;;;7.41;98.79;102044.34;5071876;28;20024;-72
2022/05/04 02:11:54;;;;;;;10.38;4.65;;;;;;;7.36;99.05;102038.00;5071924;28;20051;-73
2022/05/04 02:14:20;;;;;;;8.82;4.93;;;;;;;7.26;100.00;102036.66;5072538;28;20541;-73
2022/05/04 02:16:45;;;;;;;12.20;4.82;;;;;;;7.35;100.00;102043.16;5071936;28;20357;-74
2022/05/04 02:19:11;;;;;;;8.90;4.72;;;;;;;7.38;100.00;102046.84;5070746;28;20087;-74
2022/05/04 02:21:37;;;;;;;15.52;4.97;;;;;;;7.37;100.00;102037.19;5070967;28;20111;-74
2022/05/04 02:24:02;;;;;;;11.93;5.57;;;;;;;7.24;100.00;102035.69;5072725;28;20480;-73
2022/05/04 02:26:28;;;;;;;15.98;5.40;;;;;;;7.15;100.00;102035.22;5072435;28;20021;-73
2022/05/04 02:28:54;;;;;;;11.90;5.55;;;;;;;7.07;100.00;102034.84;5070444;28;20111;-73
2022/05/04 02:31:19;;;;;;;13.40;5.07;;;;;;;6.93;100.00;102038.47;5062453;28;20055;-72
2022/05/04 02:33:47;;;;;;;16.60;5.43;;;;;;;6.84;100.00;102027.56;5071016;28;20031;-73
2022/05/04 02:38:56;;;;;;;8.85;4.60;;;;;;;6.86;100.00;102026.81;5073242;28;20094;-74
2022/05/04 02:41:22;;;;;;;8.77;4.85;;;;;;;7.02;100.00;102038.94;5072523;28;20083;-74
2022/05/04 02:43:47;;;;;;;12.18;5.10;;;;;;;6.91;100.00;102029.66;5071007;28;20028;-73
2022/05/04 02:46:18;;;;;;;10.57;5.15;;;;;;;6.86;100.00;102031.13;5070811;28;20029;-73
2022/05/04 02:48:44;;;;;;;10.68;4.85;;;;;;;6.80;100.00;102036.06;5071975;28;20476;-73
2022/05/04 02:51:09;;;;;;;12.18;5.20;;;;;;;6.67;100.00;102031.91;5072010;28;20044;-74
2022/05/04 02:53:35;;;;;;;12.85;5.53;;;;;;;6.55;100.00;102025.25;5071080;28;20032;-74
2022/05/04 02:56:01;;;;;;;11.20;5.22;;;;;;;6.46;100.00;102023.84;5069676;28;20032;-73
2022/05/04 02:58:27;;;;;;;10.95;5.22;;;;;;;6.41;100.00;102029.72;5072368;28;20380;-73
2022/05/04 03:00:52;;;;;;;9.63;5.30;;;;;;;6.28;100.00;102027.31;5070457;28;20020;-73
2022/05/04 03:03:18;;;;;;;14.63;5.50;;;;;;;6.26;100.00;102031.53;5072716;28;20024;-74
2022/05/04 03:05:43;;;;;;;11.15;5.57;;;;;;;6.27;100.00;102025.50;5071199;28;20139;-73
2022/05/04 03:08:09;;;;;;;13.98;5.57;;;;;;;6.24;100.00;102033.19;5071351;28;20090;-73
2022/05/04 03:11:54;;;;;;;9.77;5.15;;;;;;;6.18;100.00;102032.84;5071311;28;20052;-72
2022/05/04 03:13:20;;;;;;;9.52;5.65;;;;;;;6.10;100.00;102028.94;5071423;28;20036;-73
2022/05/04 03:15:45;;;;;;;10.52;5.10;;;;;;;6.06;100.00;102023.53;5072483;28;20058;-73
2022/05/04 03:18:11;;;;;;;9.88;5.55;;;;;;;6.05;100.00;102031.28;5072508;28;20024;-73
2022/05/04 03:20:36;;;;;;;11.80;5.53;;;;;;;6.00;100.00;102027.53;5071528;28;20388;-72
2022/05/04 03:23:01;;;;;;;11.05;5.47;;;;;;;5.99;100.00;102021.38;5070800;28;20028;-72
2022/05/04 03:25:27;;;;;;;11.57;5.65;;;;;;;5.97;100.00;102023.00;5072078;28;20133;-73
2022/05/04 03:27:52;;;;;;;13.52;6.32;;;;;;;6.15;100.00;102023.13;5071083;28;20472;-72
2022/05/04 03:30:17;;;;;;;10.55;5.65;;;;;;;6.02;100.00;102018.06;5071112;28;20529;-73
2022/05/04 03:32:43;;;;;;;11.43;5.97;;;;;;;6.13;100.00;102016.94;5071981;28;20031;-73
2022/05/04 03:35:08;;;;;;;8.32;5.70;;;;;;;5.99;100.00;102010.94;5070272;28;20028;-74
2022/05/04 03:37:33;;;;;;;11.02;5.80;;;;;;;5.93;100.00;102014.91;5072211;28;20032;-73
2022/05/04 03:39:59;;;;;;;12.25;5.75;;;;;;;5.87;100.00;102007.63;5071058;28;20029;-73
2022/05/04 03:42:24;;;;;;;11.13;5.10;;;;;;;5.86;100.00;102004.13;5071733;28;20023;-73
2022/05/04 03:44:50;;;;;;;13.02;6.00;;;;;;;5.77;100.00;102003.63;5071663;28;20048;-72
2022/05/04 03:47:15;;;;;;;11.02;6.00;;;;;;;5.70;100.00;102002.38;5072026;28;20082;-73
2022/05/04 03:49:41;;;;;;;12.15;6.32;;;;;;;5.59;100.00;102006.13;5069353;28;20032;-72
2022/05/04 03:52:07;;;;;;;10.25;5.60;;;;;;;5.59;100.00;102008.75;5070774;28;20559;-73
2022/05/04 03:54:32;;;;;;;11.15;6.15;;;;;;;5.74;100.00;102014.81;5069859;28;20484;-73
2022/05/04 03:56:58;;;;;;;13.30;5.95;;;;;;;5.63;100.00;102010.72;5069502;28;20024;-73
2022/05/04 03:59:23;;;;;;;11.23;5.75;;;;;;;5.59;100.00;102011.34;5073242;28;20032;-72
2022/05/04 04:01:48;;;;;;;14.90;6.50;;;;;;;5.51;100.00;102016.13;5074433;28;20460;-73
2022/05/04 04:04:14;;;;;;;10.70;6.00;;;;;;;5.51;100.00;102015.25;5074828;28;20028;-73
2022/05/04 04:06:39;;;;;;;12.90;5.68;;;;;;;5.46;100.00;102011.47;5075459;28;20380;-74
2022/05/04 04:09:05;;;;;;;13.52;6.95;;;;;;;5.39;100.00;102013.72;5073147;28;20028;-73
2022/05/04 04:11:31;;;;;;;8.38;5.40;;;;;;;5.40;100.00;102010.31;5074943;28;20448;-73
2022/05/04 04:13:58;;;;;;;11.90;5.93;;;;;;;5.40;100.00;102012.91;5075308;28;20021;-71
2022/05/04 04:16:23;;;;;;;12.95;5.97;;;;;;;5.40;100.00;102012.91;5073852;28;20028;-73
2022/05/04 04:18:48;;;;;;;12.77;5.80;;;;;;;5.35;100.00;102003.91;5073064;28;20024;-74
2022/05/04 04:23:58;;;;;;;10.98;5.75;;;;;;;5.34;100.00;102012.56;5073075;28;20044;-73
2022/05/04 04:26:23;;;;;;;15.23;6.07;;;;;;;5.33;100.00;102010.78;5071367;28;20388;-74
2022/05/04 04:28:48;;;;;;;11.98;6.50;;;;;;;5.35;100.00;102014.38;5073797;28;20028;-73
2022/05/04 04:31:14;;;;;;;8.05;5.80;;;;;;;5.32;100.00;102014.19;5071227;28;20028;-74
2022/05/04 04:33:39;;;;;;;11.40;6.00;;;;;;;5.32;100.00;102014.19;5071220;28;20024;-74
2022/05/04 04:36:05;;;;;;;10.15;6.90;;;;;;;5.30;100.00;102021.03;5073137;28;21584;-74
2022/05/04 04:38:31;;;;;;;9.65;5.78;;;;;;;5.37;100.00;102017.97;5074167;28;20028;-74
2022/05/04 04:40:57;;;;;;;12.48;5.53;;;;;;;5.36;100.00;102025.72;5074069;28;20487;-74
2022/05/04 04:43:22;;;;;;;12.40;6.15;;;;;;;5.46;100.00;102021.91;5071418;28;20036;-74
2022/05/04 04:45:48;;;;;;;19.90;7.40;;;;;;;5.64;100.00;102025.53;5073537;28;20023;-75
2022/05/04 04:48:16;;;;;;;12.85;6.60;;;;;;;5.65;100.00;102023.84;5073125;28;20024;-74
2022/05/04 04:50:42;;;;;;;19.65;7.57;;;;;;;5.56;100.00;102024.22;5072665;28;20084;-76
2022/05/04 04:53:07;;;;;;;13.68;7.35;;;;;;;5.54;100.00;102020.63;5070386;28;20033;-74
2022/05/04 04:55:32;;;;;;;19.85;7.00;;;;;;;5.55;100.00;102018.09;5073947;28;20472;-71
2022/05/04 04:57:58;;;;;;;13.40;6.95;;;;;;;5.59;100.00;102019.19;5074282;28;20026;-73
2022/05/04 05:00:24;;;;;;;13.30;6.35;;;;;;;5.66;100.00;102021.31;5073222;28;20078;-74
2022/05/04 05:02:50;;;;;;;13.85;6.82;;;;;;;5.74;100.00;102030.47;5073915;28;20028;-74
2022/05/04 05:05:15;;;;;;;10.98;6.15;;;;;;;5.81;100.00;102031.72;5071435;28;20041;-74
2022/05/04 05:07:41;;;;;;;13.45;6.43;;;;;;;5.81;100.00;102025.59;5072174;28;20020;-75
2022/05/04 05:10:06;;;;;;;13.75;6.82;;;;;;;5.83;100.00;102029.19;5073420;28;20789;-74
2022/05/04 05:12:32;;;;;;;15.57;6.65;;;;;;;6.10;100.00;102031.53;5071537;28;20427;-76
2022/05/04 05:17:41;;;;;;;10.82;5.90;;;;;;;6.15;100.00;102032.69;5073386;28;20085;-74
2022/05/04 05:20:08;;;;;;;14.05;7.20;;;;;;;6.25;100.00;102032.34;5073923;28;20093;-74
2022/05/04 05:22:33;;;;;;;17.98;7.47;;;;;;;6.37;100.00;102040.84;5073503;28;20095;-74
2022/05/04 05:24:59;;;;;;;14.15;8.18;;;;;;;6.36;100.00;102039.06;5072520;28;20033;-75
2022/05/04 05:27:24;;;;;;;14.70;7.05;;;;;;;6.40;100.00;102034.88;5088977;28;20024;-75
2022/05/04 05:29:49;;;;;;;12.63;7.10;;;;;;;6.43;100.00;102029.84;5074063;28;20040;-74
2022/05/04 05:32:15;;;;;;;9.55;6.57;;;;;;;6.57;100.00;102022.69;5072395;28;20107;-75
2022/05/04 05:34:40;;;;;;;20.58;9.45;;;;;;;6.56;100.00;102018.28;5071924;28;20778;-74
2022/05/04 05:37:06;;;;;;;16.50;7.30;;;;;;;6.65;100.00;102020.50;5065146;28;20063;-74
2022/05/04 05:39:31;;;;;;;17.65;6.95;;;;;;;6.66;100.00;102022.25;5073524;28;20017;-76
2022/05/04 05:41:56;;;;;;;18.13;7.10;;;;;;;6.79;100.00;102022.06;5072852;28;20488;-75
2022/05/04 05:44:22;;;;;;;14.13;6.65;;;;;;;6.86;100.00;102025.91;5073227;28;20024;-75
2022/05/04 05:46:47;;;;;;;14.80;6.72;;;;;;;6.92;100.00;102026.22;5071556;28;20464;-74
2022/05/04 05:49:12;;;;;;;14.90;5.88;;;;;;;7.02;100.00;102024.97;5070565;28;20037;-73
2022/05/04 05:51:38;;;;;;;13.38;6.07;;;;;;;7.09;100.00;102025.34;5070494;28;20376;-75
2022/05/04 05:54:03;;;;;;;15.23;6.63;;;;;;;7.15;100.00;102026.47;5085713;28;20370;-74
2022/05/04 05:56:28;;;;;;;15.15;5.78;;;;;;;7.21;100.00;102029.41;5072514;28;20464;-75
2022/05/04 05:58:54;;;;;;;13.15;5.50;;;;;;;7.29;100.00;102020.19;5072683;28;20036;-75
2022/05/04 06:01:19;;;;;;;15.20;5.15;;;;;;;7.31;100.00;102018.56;5069736;28;20357;-74
2022/05/04 06:03:45;;;;;;;10.02;5.60;;;;;;;7.29;100.00;102029.78;5069610;28;20804;-71
2022/05/04 06:06:10;;;;;;;13.25;6.13;;;;;;;7.29;100.00;102022.81;5073214;28;20050;-72
2022/05/04 06:08:35;;;;;;;9.88;6.60;;;;;;;7.31;100.00;102020.25;5073310;28;20032;-74
2022/05/04 06:11:01;;;;;;;12.70;6.13;;;;;;;7.34;100.00;102026.56;5073109;28;20078;-75
2022/05/04 06:13:26;;;;;;;16.92;6.43;;;;;;;7.43;100.00;102026.09;5071500;28;20029;-74
2022/05/04 06:15:52;;;;;;;21.75;6.30;;;;;;;7.40;100.00;102031.19;5068956;28;20099;-72
2022/05/04 06:18:17;;;;;;;9.45;5.78;;;;;;;7.41;100.00;102026.03;5072260;28;20062;-73
2022/05/04 06:20:43;;;;;;;13.05;6.18;;;;;;;7.48;99.17;102026.34;5069554;28;20036;-74
2022/05/04 06:23:08;;;;;;;17.08;5.72;;;;;;;7.57;100.00;102021.56;5070494;28;20392;-74
2022/05/04 06:25:35;;;;;;;12.85;6.68;;;;;;;7.59;100.00;102022.50;5071121;28;20376;-74
2022/05/04 06:28:01;;;;;;;18.83;5.50;;;;;;;7.66;100.00;102032.44;5071991;28;20020;-75
2022/05/04 06:35:54;;;;;;;12.43;5.60;;;;;;;7.92;97.35;102030.16;5071787;28;20090;-72
2022/05/04 06:38:20;;;;;;;13.35;5.53;;;;;;;8.05;97.83;102036.88;5072025;28;20111;-73
2022/05/04 06:40:45;;;;;;;15.10;5.20;;;;;;;8.15;97.88;102035.56;5072479;28;20050;-73
2022/05/04 06:43:10;;;;;;;11.27;5.30;;;;;;;8.21;93.81;102034.13;5072195;28;20380;-73
2022/05/04 06:45:36;;;;;;;8.55;5.32;;;;;;;8.36;95.58;102039.16;5071165;28;20024;-73
2022/05/04 06:48:02;;;;;;;13.43;4.80;;;;;;;8.39;92.45;102036.66;5070705;28;20098;-72
2022/05/04 06:50:28;;;;;;;16.08;5.70;;;;;;;8.52;91.68;102032.00;5070272;28;20060;-73
2022/05/04 06:52:54;;;;;;;11.80;5.85;;;;;;;8.63;92.08;102033.38;5069121;28;20102;-72
2022/05/04 06:55:19;;;;;;;15.50;5.55;;;;;;;8.73;92.70;102038.19;5070062;28;20056;-72
2022/05/04 06:57:45;;;;;;;15.68;4.63;;;;;;;8.78;89.45;102030.53;5071743;28;20423;-72
2022/05/04 07:00:11;;;;;;;12.00;4.93;;;;;;;8.86;90.01;102036.13;5071594;28;20530;-72
2022/05/04 07:02:36;;;;;;;15.38;6.50;;;;;;;9.00;89.60;102036.69;5069905;28;20059;-73
2022/05/04 07:05:03;;;;;;;8.30;5.78;;;;;;;9.13;89.18;102039.00;5071749;28;20062;-72
2022/05/04 07:07:29;;;;;;;9.68;5.68;;;;;;;9.34;88.72;102038.09;5067465;28;20032;-73
2022/05/04 07:09:54;;;;;;;12.15;5.57;;;;;;;9.42;85.28;102034.94;5070273;28;20021;-73
2022/05/04 07:12:20;;;;;;;22.38;6.70;;;;;;;9.54;84.07;102033.66;5071891;28;20062;-73
2022/05/04 07:14:46;;;;;;;14.55;5.88;;;;;;;9.60;83.97;102032.16;5069291;28;20039;-72
2022/05/04 07:17:12;;;;;;;11.00;5.28;;;;;;;9.68;82.08;102034.19;5070668;28;20020;-73
2022/05/04 07:19:37;;;;;;;10.30;4.68;;;;;;;9.73;81.72;102037.91;5071849;28;20048;-73
2022/05/04 07:22:03;;;;;;;9.48;5.68;;;;;;;9.68;83.90;102036.81;5069300;28;20042;-73
2022/05/04 07:24:28;;;;;;;15.68;6.45;;;;;;;9.63;84.91;102034.03;5072592;28;20029;-74
2022/05/04 07:26:54;;;;;;;13.73;6.07;;;;;;;9.78;82.34;102037.22;5072413;28;20033;-74
2022/05/04 07:29:20;;;;;;;8.43;5.20;;;;;;;9.76;80.77;102027.50;5071451;28;20020;-73
2022/05/04 07:31:45;;;;;;;10.45;5.30;;;;;;;9.69;82.18;102034.25;5070474;28;20358;-73
2022/05/04 07:34:11;;;;;;;10.43;5.38;;;;;;;9.74;82.78;102032.69;5075977;28;20028;-73
2022/05/04 07:36:37;;;;;;;10.88;5.43;;;;;;;9.78;82.74;102031.09;5074400;28;20051;-72
2022/05/04 07:39:02;;;;;;;9.52;4.60;;;;;;;9.89;82.13;102026.22;5075541;28;21929;-70
2022/05/04 07:44:12;;;;;;;8.07;4.93;;;;;;;9.68;83.84;102029.81;5075176;28;20090;-72
2022/05/04 07:46:37;;;;;;;10.65;5.20;;;;;;;9.74;81.95;102035.31;5076078;28;20021;-71
2022/05/04 07:49:04;;;;;;;9.48;5.47;;;;;;;9.86;83.51;102028.75;5074995;28;20021;-70
2022/05/04 07:51:29;;;;;;;9.10;4.22;;;;;;;9.98;83.79;102034.47;5075810;28;20461;-71
2022/05/04 07:53:55;;;;;;;8.18;4.90;;;;;;;10.03;82.94;102038.19;5073846;28;20077;-70
2022/05/04 07:56:20;;;;;;;10.70;6.35;;;;;;;10.01;85.18;102034.59;5074591;28;20374;-72
2022/05/04 07:58:45;;;;;;;10.27;5.82;;;;;;;10.03;82.24;102030.28;5072132;28;20147;-72
2022/05/04 08:06:38;;;;;;;;;;;;;;;10.08;82.63;102041.88;5075890;28;20355;-73
2022/05/04 08:09:03;;;;;;;13.88;4.82;;;;;;;10.11;83.79;102035.84;5065700;28;20007;-75
2022/05/04 08:11:29;;;;;;;8.75;4.63;;;;;;;10.26;83.71;102036.41;5074136;28;20503;-74
2022/05/04 08:13:55;;;;;;;12.98;4.55;;;;;;;10.33;83.38;102042.78;5074545;28;20044;-75
2022/05/04 08:16:20;;;;;;;6.53;4.25;;;;;;;10.50;83.11;102037.28;5075064;28;20369;-75
2022/05/04 08:18:45;;;;;;;9.73;4.65;;;;;;;10.50;80.28;102042.53;5073903;28;20040;-75
2022/05/04 08:21:11;;;;;;;6.97;4.30;;;;;;;10.52;79.60;102035.59;5074763;28;20020;-74
2022/05/04 08:23:36;;;;;;;10.00;4.95;;;;;;;10.52;79.59;102033.84;5074696;28;20360;-73
2022/05/04 08:26:02;;;;;;;12.25;5.97;;;;;;;10.26;81.28;102038.16;5075349;28;20022;-73
2022/05/04 08:28:28;;;;;;;11.68;4.93;;;;;;;10.32;81.66;102041.00;5080398;28;20379;-73
2022/05/04 08:30:54;;;;;;;8.73;4.78;;;;;;;10.36;80.40;102042.94;5074394;28;20033;-73
2022/05/04 08:33:19;;;;;;;10.82;4.60;;;;;;;10.35;79.89;102035.91;5073303;28;20082;-74
2022/05/04 08:35:45;;;;;;;9.55;4.43;;;;;;;10.43;80.66;102039.69;5074824;28;20061;-73
2022/05/04 08:38:12;;;;;;;14.15;4.80;;;;;;;10.54;80.59;102041.81;5074808;28;20085;-73
2022/05/04 08:40:38;;;;;;;10.43;4.60;;;;;;;10.69;80.21;102036.19;5075014;28;20100;-74
2022/05/04 08:43:07;;;;;;;8.80;4.55;;;;;;;10.83;80.67;102040.22;5074592;28;20413;-74
2022/05/04 08:45:36;;;;;;;13.00;4.80;;;;;;;11.05;79.04;102041.84;5072909;28;20047;-74
2022/05/04 08:48:03;;;;;;;16.92;5.10;;;;;;;11.24;80.45;102047.72;5070871;28;20032;-72
2022/05/04 08:50:29;;;;;;;10.65;4.25;;;;;;;11.31;80.86;102044.44;5072025;28;20051;-73
2022/05/04 08:52:54;;;;;;;10.00;5.03;;;;;;;11.50;78.71;102043.31;5073481;28;20068;-72
2022/05/04 08:55:24;;;;;;;9.85;5.68;;;;;;;11.25;78.90;102036.34;5074626;28;20341;-72
2022/05/04 08:57:50;;;;;;;10.10;5.22;;;;;;;11.43;79.63;102043.97;5066366;28;20043;-73
2022/05/04 09:00:16;;;;;;;11.57;5.90;;;;;;;11.27;80.11;102032.94;5074527;28;20039;-71
2022/05/04 09:02:42;;;;;;;10.38;5.65;;;;;;;11.10;81.33;102039.38;5073339;28;20035;-71
2022/05/04 09:05:12;;;;;;;9.82;4.88;;;;;;;11.37;79.69;102034.13;5073315;28;20032;-72
2022/05/04 09:07:39;;;;;;;12.18;5.45;;;;;;;11.54;77.78;102037.28;5074383;28;20472;-72
2022/05/04 09:10:05;;;;;;;9.65;4.88;;;;;;;11.62;77.33;102037.53;5074447;28;20031;-71
2022/05/04 09:12:32;;;;;;;8.35;5.13;;;;;;;11.53;78.31;102031.97;5074239;28;20421;-71
2022/05/04 09:14:57;;;;;;;9.65;4.65;;;;;;;11.66;79.12;102036.78;5074341;28;20020;-72
2022/05/04 09:17:23;;;;;;;9.05;5.15;;;;;;;11.69;79.98;102036.88;5074154;28;20434;-72
2022/05/04 09:20:45;;;;;;;14.55;5.53;;;;;;;11.70;81.91;102040.41;5073934;28;20055;-71
2022/05/04 09:22:41;;;;;;;10.68;5.97;;;;;;;11.84;80.77;102025.00;5073197;28;20075;-71
2022/05/04 09:25:16;;;;;;;11.77;5.43;;;;;;;12.09;81.77;102024.94;5072374;28;20515;-71
2022/05/04 09:27:41;;;;;;;12.60;5.38;;;;;;;12.23;81.40;102019.16;5087189;28;20036;-71
2022/05/04 09:30:07;;;;;;;11.65;5.88;;;;;;;12.48;81.00;102021.66;5072578;28;20532;-71
2022/05/04 09:32:33;;;;;;;13.43;5.28;;;;;;;12.41;76.96;102018.78;5072898;28;20036;-73
2022/05/04 09:35:02;;;;;;;10.55;5.13;;;;;;;12.56;76.45;102013.03;5072959;28;20035;-71
2022/05/04 09:45:57;;;;;;;;;;;;;;;12.68;74.44;102002.78;5074020;28;20391;-72
2022/05/04 09:48:34;;;;;;;9.40;4.97;;;;;;;12.79;74.19;102004.00;5072340;28;19923;-71
2022/05/04 09:51:05;;;;;;;11.43;4.93;;;;;;;12.86;73.70;102005.03;5070648;28;20519;-71
2022/05/04 09:53:30;;;;;;;10.90;5.30;;;;;;;12.85;74.56;102010.28;5072614;28;20102;-71
2022/05/04 09:55:56;;;;;;;10.98;6.03;;;;;;;12.91;75.34;102021.00;5073195;28;20055;-71
2022/05/04 09:58:29;;;;;;;13.18;6.32;;;;;;;13.26;76.92;102019.25;5073370;28;20056;-70
2022/05/04 10:00:55;;;;;;;12.95;6.10;;;;;;;13.49;75.18;102017.16;5072567;28;20169;-71
2022/05/04 10:03:21;;;;;;;12.65;5.75;;;;;;;13.42;70.64;102014.38;5072543;28;20038;-70
2022/05/04 10:05:48;;;;;;;13.25;5.60;;;;;;;13.25;71.77;102011.28;5073232;28;20032;-71
2022/05/04 10:08:14;;;;;;;12.40;5.97;;;;;;;13.37;70.89;102008.94;5073242;28;20016;-71
2022/05/04 10:10:40;;;;;;;9.90;6.03;;;;;;;13.28;71.23;102013.97;5072276;28;20032;-72
2022/05/04 10:13:08;;;;;;;14.90;6.57;;;;;;;13.56;73.04;102006.75;5071297;28;20052;-70
2022/05/04 10:15:36;;;;;;;8.43;5.47;;;;;;;13.59;70.21;102002.44;5073220;28;20055;-72
2022/05/04 10:18:15;;;;;;;10.05;6.10;;;;;;;13.82;71.73;102004.69;5054395;28;20032;-71
2022/05/04 10:20:49;;;;;;;20.05;6.70;;;;;;;14.38;73.26;102001.44;5072947;28;20136;-71
2022/05/04 10:23:27;;;;;;;12.30;5.70;;;;;;;14.75;68.11;101996.84;5071526;28;20106;-71
2022/05/04 10:25:57;;;;;;;13.43;5.57;;;;;;;14.96;67.80;101995.44;5073041;28;20051;-72
2022/05/04 10:28:23;;;;;;;20.27;6.25;;;;;;;14.97;68.09;101992.81;5072225;28;20039;-73
2022/05/04 10:30:55;;;;;;;10.80;5.68;;;;;;;15.04;64.51;101999.09;5072894;28;20047;-72
2022/05/04 10:33:31;;;;;;;9.85;5.20;;;;;;;15.35;63.21;101991.63;5073122;28;20392;-72
2022/05/04 10:36:13;;;;;;;8.95;6.20;;;;;;;15.43;60.07;101990.00;5068220;28;20094;-73
2022/05/04 10:38:42;;;;;;;10.88;5.78;;;;;;;15.37;59.73;101981.97;5068706;28;20028;-73
2022/05/04 10:41:09;;;;;;;13.70;6.55;;;;;;;15.26;61.52;101986.19;5072869;28;20085;-73
2022/05/04 10:43:43;;;;;;;12.82;6.15;;;;;;;15.65;62.35;101992.97;5071527;28;20055;-74
2022/05/04 10:46:16;;;;;;;10.43;5.65;;;;;;;15.94;60.16;101989.81;5072860;28;20020;-73
2022/05/04 10:48:44;;;;;;;10.20;6.10;;;;;;;15.96;57.44;101985.44;5071511;28;20027;-72
2022/05/04 10:51:12;;;;;;;12.95;5.35;;;;;;;15.91;56.40;101981.84;5072987;28;20460;-74
2022/05/04 10:53:41;;;;;;;11.75;5.60;;;;;;;15.84;57.99;101979.13;5073513;28;20029;-73
2022/05/04 10:56:08;;;;;;;12.18;5.75;;;;;;;16.01;58.37;101983.75;5072448;28;20130;-73
2022/05/04 10:58:39;;;;;;;13.50;6.40;;;;;;;15.76;58.44;101986.06;5071708;28;20035;-72
2022/05/04 11:01:13;;;;;;;11.88;6.43;;;;;;;15.34;61.43;101979.25;5072172;28;20089;-73
2022/05/04 11:04:04;;;;;;;9.68;5.28;;;;;;;15.87;60.25;101982.66;5071113;28;20093;-72
2022/05/04 11:06:33;;;;;;;9.35;5.10;;;;;;;16.07;59.78;101977.59;5072111;28;20099;-72
2022/05/04 11:09:24;;;;;;;15.13;5.97;;;;;;;16.46;61.38;101982.47;5076186;28;20488;-72
2022/05/04 11:11:51;;;;;;;12.60;5.00;;;;;;;16.97;57.09;101979.44;5076010;28;20119;-75
2022/05/04 11:14:19;;;;;;;10.50;3.30;;;;;;;16.93;54.40;101975.88;5075391;28;20028;-73
2022/05/04 11:16:45;;;;;;;7.05;3.55;;;;;;;16.74;54.68;101982.75;5076578;28;20024;-74
2022/05/04 11:19:14;;;;;;;7.57;3.80;;;;;;;16.64;54.60;101978.22;5076060;28;20079;-73
2022/05/04 11:21:41;;;;;;;6.60;3.13;;;;;;;17.11;56.67;101985.75;5075846;28;20024;-73
2022/05/04 11:24:09;;;;;;;8.32;3.53;;;;;;;17.57;56.71;101985.19;5075823;28;20490;-76
2022/05/04 11:26:35;;;;;;;9.15;3.92;;;;;;;17.99;52.73;101973.00;5081103;28;20020;-75
2022/05/04 11:29:06;;;;;;;6.78;3.63;;;;;;;17.85;51.43;101975.56;5077386;28;20420;-77
2022/05/04 11:31:32;;;;;;;7.78;3.33;;;;;;;17.76;51.76;101977.31;5072639;28;20032;-76
2022/05/04 11:33:57;;;;;;;6.15;3.75;;;;;;;17.66;51.37;101979.91;5073847;28;20606;-76
2022/05/04 11:36:23;;;;;;;11.60;4.28;;;;;;;17.79;53.77;101972.88;5075174;28;20027;-76
2022/05/04 11:38:49;;;;;;;6.53;4.05;;;;;;;18.06;50.38;101968.56;5074081;28;20024;-77
2022/05/04 11:41:16;;;;;;;10.18;4.07;;;;;;;18.18;50.24;101968.63;5073964;28;20029;-76
2022/05/04 11:43:43;;;;;;;10.68;3.90;;;;;;;18.42;54.15;101964.25;5074348;28;20479;-76
2022/05/04 11:46:10;;;;;;;7.38;4.43;;;;;;;18.67;50.81;101969.59;5072634;28;20029;-74
2022/05/04 11:48:44;;;;;;;7.20;4.18;;;;;;;18.75;47.23;101959.84;5074541;28;20495;-72